Latest Weather Observations for Kilmore Gap

IDV60801

Issued at 6:35 am EDT Friday 28 November 2014 (issued every 30 minutes, with the page automatically refreshed every 10 minutes)

About weather observations | Map of weather stations | Latest weather observations for VIC | Other Formats
Station Details ID: 088162 Name: KILMORE GAP Lat: -37.38 Lon: 144.97 Height: 527.8 m
Data from the previous 72 hours. | See also: Recent months at Kilmore Gap
Date/Time
EDT
Temp
°C
App
Temp
°C
Dew
Point
Rel
Hum
%
Delta-T
°C
Wind Press
QNH
hPa
Press
MSL
hPa
Rain
since 9 am
mm
Dir
 
Spd
km/h
Gust
km/h
Spd
kts
Gust
kts
28/06:30am 7.9 3.2 7.9 100 0.0 S 22 30 12 16 1022.4 - 0.2
28/06:00am 7.7 3.0 7.7 100 0.0 S 22 30 12 16 1022.3 1021.8 0.2
28/05:30am 7.5 2.4 7.5 100 0.0 S 24 35 13 19 1021.9 - 0.2
28/05:00am 7.4 1.9 7.4 100 0.0 S 26 35 14 19 1021.4 - 0.2
28/04:30am 7.3 1.4 7.3 100 0.0 S 28 37 15 20 1021.3 - 0.2
28/04:00am 7.2 1.6 7.2 100 0.0 S 26 35 14 19 1021.1 - 0.2
28/03:30am 7.3 2.5 7.3 100 0.0 S 22 32 12 17 1020.9 - 0.2
28/03:00am 7.3 2.1 7.3 100 0.0 S 24 33 13 18 1021.2 1020.7 0.2
28/02:30am 7.4 2.6 7.4 100 0.0 S 22 30 12 16 1021.3 - 0.2
28/02:00am 7.5 2.0 7.5 100 0.0 S 26 39 14 21 1021.9 - 0.2
28/01:30am 7.6 2.1 7.6 100 0.0 S 26 39 14 21 1022.1 - 0.2
28/01:00am 7.5 1.6 7.5 100 0.0 S 28 35 15 19 1022.2 - 0.2
28/12:30am 7.6 1.7 7.6 100 0.0 S 28 35 15 19 1022.8 - 0.2
28/12:00am 7.3 1.3 7.2 99 0.0 S 28 37 15 20 1023.1 1022.6 0.2
 
Date/Time
EDT
Temp
°C
App
Temp
°C
Dew
Point
Rel
Hum
%
Delta-T
°C
Wind Press
QNH
hPa
Press
MSL
hPa
Rain
since 9 am
mm
Dir
 
Spd
km/h
Gust
km/h
Spd
kts
Gust
kts
27/11:56pm 7.3 1.3 7.2 99 0.0 S 28 37 15 20 1023.1 - 0.2
27/11:54pm 7.3 1.0 7.2 99 0.0 S 30 37 16 20 1023.1 - 0.2
27/11:30pm 7.4 1.5 7.3 99 0.0 S 28 35 15 19 1023.3 - 0.2
27/11:00pm 7.6 1.2 7.0 96 0.3 S 30 35 16 19 1023.3 - 0.2
27/10:30pm 7.7 2.0 6.8 94 0.4 S 26 35 14 19 1023.2 - 0.2
27/10:00pm 8.3 2.0 7.5 95 0.4 S 30 37 16 20 1023.5 - 0.2
27/09:30pm 8.7 2.8 7.6 93 0.5 S 28 39 15 21 1023.4 - 0.2
27/09:00pm 9.2 3.7 7.6 90 0.8 S 26 37 14 20 1023.3 1022.8 0.2
27/08:30pm 9.8 3.9 7.7 87 1.0 S 28 41 15 22 1023.1 - 0.2
27/08:00pm 11.1 5.7 8.0 81 1.6 S 26 37 14 20 1023.3 - 0.2
27/07:30pm 12.3 6.6 8.4 77 2.0 S 28 39 15 21 1023.1 - 0.2
27/07:00pm 13.2 7.2 8.5 73 2.4 S 30 39 16 21 1023.0 - 0.2
27/06:30pm 14.0 8.7 8.6 70 2.8 S 26 37 14 20 1023.1 - 0.2
27/06:00pm 14.8 8.8 8.5 66 3.3 S 30 39 16 21 1023.0 1022.5 0.2
27/05:30pm 15.7 9.6 8.4 62 3.8 S 30 43 16 23 1023.1 - 0.2
27/05:00pm 15.8 9.8 8.5 62 3.8 S 30 43 16 23 1023.2 - 0.2
27/04:30pm 16.7 11.6 9.1 61 4.0 S 26 39 14 21 1023.2 - 0.2
27/04:00pm 16.4 10.8 8.6 60 4.1 S 28 43 15 23 1023.3 - 0.2
27/03:30pm 16.9 10.8 8.1 56 4.6 S 30 43 16 23 1023.3 - 0.2
27/03:00pm 17.0 10.9 8.2 56 4.6 S 30 44 16 24 1023.6 1023.1 0.2
27/02:30pm 17.6 13.0 9.8 60 4.2 S 24 44 13 24 1023.8 - 0.2
27/02:00pm 17.5 12.2 8.4 55 4.8 S 26 41 14 22 1023.9 - 0.2
27/01:30pm 15.7 9.3 7.0 56 4.4 S 30 44 16 24 1023.9 - 0.2
27/01:00pm 16.4 10.7 8.4 59 4.2 S 28 48 15 26 1024.1 - 0.2
27/12:45pm 16.0 10.3 8.2 60 4.1 S 28 48 15 26 1024.1 - 0.2
27/12:30pm 15.6 10.4 7.4 58 4.2 S 24 39 13 21 1024.4 - 0.2
27/12:00pm 15.2 9.8 8.0 62 3.7 S 26 37 14 20 1024.6 1024.1 0.2
27/11:30am 14.1 7.5 6.2 59 3.9 SSE 30 50 16 27 1024.4 - 0.2
27/11:00am 13.7 7.7 7.2 65 3.3 SSE 28 41 15 22 1024.9 - 0.2
27/10:33am 12.8 6.2 6.2 64 3.2 S 30 48 16 26 1024.7 - 0.0
27/10:30am 13.1 6.7 6.9 66 3.1 S 30 46 16 25 1024.7 - 0.0
27/10:12am 13.1 7.1 7.1 67 3.0 S 28 46 15 25 1024.8 - 0.0
27/10:00am 12.2 5.3 6.3 67 2.9 S 32 43 17 23 1024.8 - 0.0
27/09:30am 11.5 4.9 6.2 70 2.6 S 30 50 16 27 1024.7 - 0.0
27/09:23am 11.0 3.9 5.5 69 2.6 S 32 50 17 27 1024.7 - 0.0
27/09:00am 11.1 4.6 6.3 72 2.3 S 30 43 16 23 1024.4 1024.0 0.0
27/08:46am 10.7 4.1 5.9 72 2.3 S 30 48 16 26 1024.4 - 0.0
27/08:30am 10.5 4.7 6.3 75 2.0 S 26 44 14 24 1024.6 - 0.0
27/08:00am 9.9 2.4 6.1 77 1.8 S 35 46 19 25 1024.1 - 0.0
27/07:34am 8.6 2.2 5.4 80 1.5 S 28 52 15 28 1023.9 - 0.0
27/07:30am 8.6 3.0 5.5 81 1.4 S 24 41 13 22 1024.0 - 0.0
27/07:00am 8.0 1.9 4.9 81 1.4 S 26 37 14 20 1023.8 - 0.0
27/06:30am 7.7 2.1 5.2 84 1.1 S 24 33 13 18 1023.5 - 0.0
27/06:00am 7.5 2.5 4.8 83 1.2 S 20 32 11 17 1023.3 1022.8 0.0
27/05:30am 7.7 2.0 5.0 83 1.2 S 24 35 13 19 1023.1 - 0.0
27/05:00am 7.6 1.9 4.9 83 1.2 S 24 43 13 23 1022.4 - 0.0
27/04:30am 8.0 2.4 5.3 83 1.2 S 24 33 13 18 1022.6 - 0.0
27/04:00am 7.9 1.9 5.2 83 1.2 S 26 35 14 19 1022.1 - 0.0
27/03:30am 8.1 2.5 5.6 84 1.2 S 24 33 13 18 1022.0 - 0.0
27/03:00am 8.1 3.0 6.1 87 0.9 S 22 32 12 17 1022.2 1021.7 0.0
27/02:30am 8.1 2.6 6.1 87 0.9 S 24 35 13 19 1022.4 - 0.0
27/02:00am 8.3 3.7 6.4 88 0.9 S 20 26 11 14 1022.9 - 0.0
27/01:30am 8.4 2.3 6.4 87 0.9 S 28 37 15 20 1022.9 - 0.0
27/01:00am 8.6 2.5 6.6 87 1.0 S 28 37 15 20 1023.0 - 0.0
27/12:56am 8.6 2.5 6.7 88 0.9 S 28 37 15 20 1023.0 - 0.0
27/12:30am 8.8 3.6 7.3 90 0.7 S 24 32 13 17 1023.4 - 0.0
27/12:00am 8.8 3.7 7.6 92 0.6 S 24 35 13 19 1023.6 1023.1 0.0
 
Date/Time
EDT
Temp
°C
App
Temp
°C
Dew
Point
Rel
Hum
%
Delta-T
°C
Wind Press
QNH
hPa
Press
MSL
hPa
Rain
since 9 am
mm
Dir
 
Spd
km/h
Gust
km/h
Spd
kts
Gust
kts
26/11:30pm 9.1 4.0 7.7 91 0.7 S 24 35 13 19 1023.5 - 0.0
26/11:00pm 9.0 3.6 8.2 95 0.4 S 26 33 14 18 1023.6 - 0.0
26/10:30pm 8.8 4.0 8.8 100 0.0 S 24 33 13 18 1023.7 - 0.0
26/10:18pm 8.9 4.5 8.9 100 0.0 S 22 30 12 16 1023.7 - 0.0
26/10:00pm 9.0 4.6 9.0 100 0.0 S 22 30 12 16 1023.6 - 0.0
26/09:30pm 9.2 4.5 9.2 100 0.0 S 24 33 13 18 1023.4 - 0.0
26/09:00pm 9.5 4.5 9.5 100 0.0 S 26 35 14 19 1023.1 1022.6 0.0
26/08:37pm 9.5 4.9 9.5 100 0.0 S 24 35 13 19 1023.0 - 0.0
26/08:32pm 9.5 4.9 9.5 100 0.0 S 24 32 13 17 1023.0 - 0.0
26/08:30pm 9.5 4.9 9.5 100 0.0 S 24 32 13 17 1023.0 - 0.0
26/08:00pm 9.7 5.1 9.7 100 0.0 S 24 33 13 18 1022.7 - 0.0
26/07:30pm 10.2 5.7 10.2 100 0.0 S 24 35 13 19 1022.4 - 0.0
26/07:19pm 10.4 5.6 10.2 99 0.1 S 26 37 14 20 1022.4 - 0.0
26/07:00pm 10.6 5.4 10.3 98 0.2 S 28 39 15 21 1022.2 - 0.0
26/06:30pm 12.0 6.9 10.6 91 0.7 S 28 37 15 20 1021.7 - 0.0
26/06:00pm 13.3 9.1 11.2 87 1.1 S 24 37 13 20 1021.5 1021.0 0.0
26/05:40pm 14.0 10.5 11.0 82 1.6 S 20 30 11 16 1021.5 - 0.0
26/05:30pm 14.5 11.0 10.9 79 2.0 S 20 35 11 19 1021.4 - 0.0
26/05:00pm 14.7 11.4 9.5 71 2.8 S 17 28 9 15 1021.5 - 0.0
26/04:30pm 14.3 10.8 8.9 70 2.8 SSE 17 24 9 13 1021.6 - 0.0
26/04:00pm 15.2 11.9 9.6 69 3.0 S 17 28 9 15 1021.7 - 0.0
26/03:30pm 15.8 13.0 10.1 69 3.1 S 15 26 8 14 1021.7 - 0.0
26/03:00pm 16.0 13.5 9.7 66 3.4 S 13 20 7 11 1021.7 1021.2 0.0
26/02:30pm 17.2 13.9 10.8 66 3.5 S 19 28 10 15 1021.8 - 0.0
26/02:00pm 15.4 11.9 8.9 65 3.4 S 17 28 9 15 1021.8 - 0.0
26/01:30pm 15.6 12.7 9.5 67 3.2 S 15 24 8 13 1021.9 - 0.0
26/01:00pm 15.0 11.7 9.4 69 3.0 S 17 22 9 12 1022.1 - 0.0
26/12:30pm 14.0 10.5 8.8 71 2.7 S 17 28 9 15 1022.2 - 0.0
26/12:00pm 14.1 10.6 8.7 70 2.8 S 17 28 9 15 1022.0 1021.5 0.0
26/11:30am 13.9 10.7 8.5 70 2.8 S 15 26 8 14 1021.9 - 0.0
26/11:00am 12.5 8.5 8.4 76 2.1 SSW 19 30 10 16 1021.9 - 0.0
26/10:30am 12.9 8.8 8.0 72 2.5 S 19 28 10 15 1021.8 - 0.0
26/10:00am 11.3 7.5 7.6 78 1.8 S 17 30 9 16 1021.8 - 0.0
26/09:30am 10.7 6.3 7.6 81 1.5 S 20 30 11 16 1021.6 - 0.0
26/09:00am 11.1 7.4 8.1 82 1.5 S 17 24 9 13 1021.6 1021.1 0.0
26/08:50am 9.9 6.0 7.0 82 1.4 S 17 22 9 12 1021.5 - 0.0
26/08:30am 9.6 5.7 7.2 85 1.2 SSW 17 22 9 12 1021.4 - 0.0
26/08:00am 8.5 4.1 6.5 87 1.0 SSW 19 26 10 14 1021.2 - 0.0
26/07:43am 8.2 4.1 6.3 88 0.9 SSW 17 24 9 13 1021.2 - 0.0
26/07:30am 8.1 4.0 6.4 89 0.8 SSW 17 24 9 13 1021.1 - 0.0
26/07:00am 7.7 3.1 6.5 92 0.6 SSW 20 26 11 14 1020.7 - 0.0
26/06:57am 7.6 3.0 6.4 92 0.6 SSW 20 26 11 14 1020.7 - 0.0
26/06:30am 7.5 3.0 6.1 91 0.7 SSW 19 24 10 13 1020.4 - 0.0
26/06:00am 7.5 2.8 6.0 90 0.7 SSW 20 24 11 13 1020.2 1019.7 0.0
26/05:30am 7.7 3.6 6.0 89 0.8 SSW 17 24 9 13 1020.0 - 0.0
26/05:00am 7.5 3.7 6.0 90 0.7 SSW 15 20 8 11 1019.9 - 0.0
26/04:30am 7.7 3.6 6.0 89 0.8 SSW 17 20 9 11 1020.0 - 0.0
26/04:00am 7.9 4.1 6.0 88 0.9 SSW 15 20 8 11 1020.1 - 0.0
26/03:30am 7.4 3.6 5.9 90 0.7 S 15 19 8 10 1020.0 - 0.0
26/03:00am 7.6 4.2 5.9 89 0.8 S 13 19 7 10 1020.1 1019.6 0.0
26/02:30am 8.0 4.3 6.1 88 0.9 S 15 20 8 11 1020.2 - 0.0
26/02:00am 7.5 3.7 6.0 90 0.7 S 15 19 8 10 1020.4 - 0.0
26/01:30am 7.9 4.1 6.0 88 0.9 S 15 19 8 10 1020.7 - 0.0
26/01:00am 8.5 4.5 6.5 87 1.0 S 17 20 9 11 1021.0 - 0.0
26/12:30am 9.1 4.7 6.7 85 1.2 S 19 26 10 14 1021.2 - 0.0
26/12:00am 9.4 5.1 7.0 85 1.2 S 19 28 10 15 1021.4 1020.9 0.0
 
Date/Time
EDT
Temp
°C
App
Temp
°C
Dew
Point
Rel
Hum
%
Delta-T
°C
Wind Press
QNH
hPa
Press
MSL
hPa
Rain
since 9 am
mm
Dir
 
Spd
km/h
Gust
km/h
Spd
kts
Gust
kts
25/11:30pm 9.6 6.0 8.4 92 0.6 S 17 22 9 12 1021.5 - 0.0
25/11:00pm 9.7 6.2 8.8 94 0.5 S 17 22 9 12 1021.7 - 0.0
25/10:30pm 9.6 6.1 8.7 94 0.5 S 17 22 9 12 1021.6 - 0.0
25/10:00pm 9.8 5.9 8.6 92 0.6 S 19 24 10 13 1021.6 - 0.0
25/09:30pm 10.1 6.9 8.5 90 0.8 SSE 15 19 8 10 1021.2 - 0.0
25/09:00pm 10.9 7.7 8.5 85 1.2 SSE 15 24 8 13 1020.9 1020.3 0.0
25/08:30pm 11.8 8.9 8.1 78 1.9 SSE 13 22 7 12 1020.7 - 0.0
25/08:00pm 13.0 9.7 8.1 72 2.5 SSE 15 26 8 14 1020.4 - 0.0
25/07:30pm 14.4 10.4 8.1 66 3.2 S 19 26 10 14 1020.0 - 0.0
25/07:00pm 16.3 11.9 4.7 46 5.6 SW 17 28 9 15 1019.6 - 0.0
25/06:30pm 16.0 11.2 4.7 47 5.5 SW 19 24 10 13 1019.3 - 0.0
25/06:00pm 16.9 13.0 5.2 46 5.8 SW 15 24 8 13 1019.0 1018.4 0.0
25/05:30pm 18.4 14.6 5.9 44 6.3 SW 15 26 8 14 1019.0 - 0.0
25/05:00pm 18.0 13.6 4.9 42 6.5 WSW 17 26 9 14 1019.1 - 0.0
25/04:30pm 16.4 12.4 5.1 47 5.5 SW 15 26 8 14 1019.2 - 0.0
25/04:00pm 17.0 11.8 5.6 47 5.7 W 22 28 12 15 1019.1 - 0.0
25/03:30pm 16.6 12.4 5.9 49 5.3 SW 17 24 9 13 1019.2 - 0.0
25/03:00pm 16.8 12.2 5.4 47 5.6 W 19 30 10 16 1019.1 1018.5 0.0
25/02:30pm 17.8 14.5 6.3 47 5.8 WSW 13 22 7 12 1019.2 - 0.0
25/02:00pm 16.5 11.7 4.5 45 5.8 WSW 19 32 10 17 1019.4 - 0.0
25/01:30pm 17.2 12.6 6.7 50 5.3 W 20 30 11 16 1019.3 - 0.0
25/01:00pm 14.7 9.9 5.8 55 4.4 SSW 20 26 11 14 1019.3 - 0.0
25/12:30pm 15.6 10.7 4.3 47 5.4 WSW 19 32 10 17 1019.3 - 0.0
25/12:00pm 14.6 9.7 5.1 53 4.6 SW 20 28 11 15 1019.5 1019.0 0.0
25/11:30am 14.1 9.2 6.7 61 3.7 SW 22 33 12 18 1019.5 - 0.0
25/11:00am 13.0 8.3 6.1 63 3.4 SW 20 30 11 16 1019.6 - 0.0
25/10:30am 12.8 8.3 6.8 67 3.0 WSW 20 35 11 19 1019.5 - 0.0
25/10:00am 11.9 7.4 7.0 72 2.4 WSW 20 33 11 18 1019.4 - 0.0
25/09:30am 12.1 7.9 8.2 77 2.0 SW 20 30 11 16 1019.2 - 0.0
25/09:00am 10.8 6.2 6.7 76 2.0 WSW 20 33 11 18 1019.0 1018.4 9.2
25/08:30am 9.8 5.5 7.2 84 1.3 WSW 19 28 10 15 1018.6 - 9.2
25/08:00am 9.5 4.6 7.1 85 1.2 WSW 22 32 12 17 1017.9 - 9.2
25/07:30am 8.6 4.2 6.6 87 1.0 WSW 19 24 10 13 1017.3 - 9.2
25/07:00am 7.9 4.1 5.9 87 0.9 WSW 15 20 8 11 1017.0 - 9.2

Other Formats:

Comma delimited format used in spreadsheet applications
http://www.bom.gov.au/fwo/IDV60801/IDV60801.94860.axf

JavaScript Object Notation format (JSON) in row-major order
http://www.bom.gov.au/fwo/IDV60801/IDV60801.94860.json